CheckWX is a tool to help pilots better visualize weather data.  It is not intended as a substitute for an official pre-flight weather briefing.

05:27:59 UTC

KIDP METAR
Independence Municipal Airport
Independence, Kansas, USA
Current

33 mins ago

KIDP 280455Z AUTO 34010KT 10SM SCT017 BKN025 OVC037 04/02 A3024 RMK AO2 T00430023
Observed
Feb-28 @ 04:55 UTC
Wind
  • 340° at 10 KTS
Visibility
10 SM
Flight Rules
MVFR
Cloud Levels
  • Scattered at 1,700' AGL
  • Broken at 2,500' AGL
  • Overcast at 3,700' AGL
Temperature
C / 39°F
Dewpoint
C / 36°F
Humidity
87%
Altimeter
30.24" Hg
Pressure
1024.02 hPa
Previous

53 mins ago

KIDP 280435Z AUTO 34012KT 10SM SCT015 BKN036 OVC043 04/02 A3024 RMK AO2 T00420023
Observed
Feb-28 @ 04:35 UTC
Wind
  • 340° at 12 KTS
Visibility
10 SM
Flight Rules
VFR
Cloud Levels
  • Scattered at 1,500' AGL
  • Broken at 3,600' AGL
  • Overcast at 4,300' AGL
Temperature
C / 39°F
Dewpoint
C / 36°F
Humidity
87%
Altimeter
30.24" Hg
Pressure
1024.02 hPa
Previous

1 hour ago

KIDP 280415Z AUTO 34015KT 10SM SCT028 OVC035 05/02 A3024 RMK AO2 T00450023
Observed
Feb-28 @ 04:15 UTC
Wind
  • 340° at 15 KTS
Visibility
10 SM
Flight Rules
VFR
Cloud Levels
  • Scattered at 2,800' AGL
  • Overcast at 3,500' AGL
Temperature
C / 41°F
Dewpoint
C / 36°F
Humidity
81%
Altimeter
30.24" Hg
Pressure
1024.02 hPa